Whiteside, Tennessee
Current Conditions -  °F | °C
As of 12:53 AM on Wednesday 26 Nov 2014 (Local Time) from KCHA Reporting Station
Scattered Clouds Scattered Clouds  
Wind Chill: 43°   Ceiling: Unl
Heat Index: 45°   Visibility: 10mi
Dew Point: 33°   Wind: 5mph
Humidity: 63%   Direction: 290°WNW
Pressure: 30.06"   Gusts: NA
Location:  34.99°N, 85.5°W
Report Text: KCHA 260653Z AUTO 29004KT 10SM SCT110 07/01 A3006 RMK AO2 SLP178 T00720006
Loading
Personal Weather Stations






























Interactive Weather Map New forecast layout! Learn more

10-Day Weather Forecast

Advertisements
Track Severe Weather on mobile